sensor_id;sensor_type;location;lat;lon;timestamp;P1;durP1;ratioP1;P2;durP2;ratioP2
62707;SDS011;48769;51.624;5.886;2023-12-20T00:02:08;28.70;;;12.30;;
62707;SDS011;48769;51.624;5.886;2023-12-20T00:04:34;23.20;;;10.32;;
62707;SDS011;48769;51.624;5.886;2023-12-20T00:06:59;26.73;;;11.45;;
62707;SDS011;48769;51.624;5.886;2023-12-20T00:09:24;29.10;;;12.23;;
62707;SDS011;48769;51.624;5.886;2023-12-20T00:11:50;30.52;;;11.23;;
62707;SDS011;48769;51.624;5.886;2023-12-20T00:14:15;32.85;;;10.10;;
62707;SDS011;48769;51.624;5.886;2023-12-20T00:16:40;27.27;;;9.85;;
62707;SDS011;48769;51.624;5.886;2023-12-20T00:19:06;34.83;;;10.73;;
62707;SDS011;48769;51.624;5.886;2023-12-20T00:21:32;21.70;;;9.48;;
62707;SDS011;48769;51.624;5.886;2023-12-20T00:23:57;22.42;;;9.43;;
62707;SDS011;48769;51.624;5.886;2023-12-20T00:26:23;24.92;;;9.45;;
62707;SDS011;48769;51.624;5.886;2023-12-20T00:28:48;29.13;;;9.85;;
62707;SDS011;48769;51.624;5.886;2023-12-20T00:31:13;26.20;;;9.65;;
62707;SDS011;48769;51.624;5.886;2023-12-20T00:33:39;32.00;;;9.93;;
62707;SDS011;48769;51.624;5.886;2023-12-20T00:36:08;23.23;;;9.60;;
62707;SDS011;48769;51.624;5.886;2023-12-20T00:38:33;25.45;;;8.90;;
62707;SDS011;48769;51.624;5.886;2023-12-20T00:40:59;27.77;;;9.73;;
62707;SDS011;48769;51.624;5.886;2023-12-20T00:43:24;21.27;;;8.82;;
62707;SDS011;48769;51.624;5.886;2023-12-20T00:45:49;20.92;;;8.32;;
62707;SDS011;48769;51.624;5.886;2023-12-20T00:48:14;26.08;;;9.40;;
62707;SDS011;48769;51.624;5.886;2023-12-20T00:50:40;24.23;;;10.30;;
62707;SDS011;48769;51.624;5.886;2023-12-20T00:53:05;24.27;;;10.45;;
62707;SDS011;48769;51.624;5.886;2023-12-20T00:55:30;31.10;;;10.38;;
62707;SDS011;48769;51.624;5.886;2023-12-20T00:57:56;31.40;;;11.93;;
62707;SDS011;48769;51.624;5.886;2023-12-20T01:00:21;30.58;;;11.02;;
62707;SDS011;48769;51.624;5.886;2023-12-20T01:02:46;29.13;;;11.38;;
62707;SDS011;48769;51.624;5.886;2023-12-20T01:05:14;28.63;;;10.35;;
62707;SDS011;48769;51.624;5.886;2023-12-20T01:07:39;27.20;;;10.07;;
62707;SDS011;48769;51.624;5.886;2023-12-20T01:10:05;35.22;;;12.13;;
62707;SDS011;48769;51.624;5.886;2023-12-20T01:12:30;32.92;;;10.75;;
62707;SDS011;48769;51.624;5.886;2023-12-20T01:14:55;32.78;;;10.50;;
62707;SDS011;48769;51.624;5.886;2023-12-20T01:17:21;31.27;;;10.60;;
62707;SDS011;48769;51.624;5.886;2023-12-20T01:19:46;24.77;;;10.77;;
62707;SDS011;48769;51.624;5.886;2023-12-20T01:22:11;25.98;;;8.85;;
62707;SDS011;48769;51.624;5.886;2023-12-20T01:24:36;32.42;;;9.60;;
62707;SDS011;48769;51.624;5.886;2023-12-20T01:27:02;35.55;;;9.27;;
62707;SDS011;48769;51.624;5.886;2023-12-20T01:29:27;22.17;;;7.30;;
62707;SDS011;48769;51.624;5.886;2023-12-20T01:31:52;25.10;;;7.50;;
62707;SDS011;48769;51.624;5.886;2023-12-20T01:34:18;25.85;;;6.07;;
62707;SDS011;48769;51.624;5.886;2023-12-20T01:36:43;32.75;;;6.60;;
62707;SDS011;48769;51.624;5.886;2023-12-20T01:39:08;20.20;;;6.55;;
62707;SDS011;48769;51.624;5.886;2023-12-20T01:41:34;20.65;;;6.45;;
62707;SDS011;48769;51.624;5.886;2023-12-20T01:43:59;20.33;;;5.78;;
62707;SDS011;48769;51.624;5.886;2023-12-20T01:46:24;19.88;;;5.22;;
62707;SDS011;48769;51.624;5.886;2023-12-20T01:48:50;18.25;;;4.82;;
62707;SDS011;48769;51.624;5.886;2023-12-20T01:51:16;28.08;;;5.32;;
62707;SDS011;48769;51.624;5.886;2023-12-20T01:53:42;23.75;;;4.57;;
62707;SDS011;48769;51.624;5.886;2023-12-20T01:56:08;28.42;;;5.22;;
62707;SDS011;48769;51.624;5.886;2023-12-20T01:58:35;18.17;;;4.38;;
62707;SDS011;48769;51.624;5.886;2023-12-20T02:01:08;25.42;;;5.10;;
62707;SDS011;48769;51.624;5.886;2023-12-20T02:03:34;27.85;;;5.57;;
62707;SDS011;48769;51.624;5.886;2023-12-20T02:06:01;38.08;;;5.53;;
62707;SDS011;48769;51.624;5.886;2023-12-20T02:08:27;26.30;;;4.93;;
62707;SDS011;48769;51.624;5.886;2023-12-20T02:10:53;33.13;;;5.30;;
62707;SDS011;48769;51.624;5.886;2023-12-20T02:13:19;30.67;;;5.00;;
62707;SDS011;48769;51.624;5.886;2023-12-20T02:15:44;30.15;;;5.63;;
62707;SDS011;48769;51.624;5.886;2023-12-20T02:18:10;28.85;;;5.85;;
62707;SDS011;48769;51.624;5.886;2023-12-20T02:20:39;21.70;;;4.15;;
62707;SDS011;48769;51.624;5.886;2023-12-20T02:23:04;25.48;;;4.72;;
62707;SDS011;48769;51.624;5.886;2023-12-20T02:25:29;20.80;;;4.18;;
62707;SDS011;48769;51.624;5.886;2023-12-20T02:27:54;23.98;;;4.20;;
62707;SDS011;48769;51.624;5.886;2023-12-20T02:30:20;25.77;;;4.72;;
62707;SDS011;48769;51.624;5.886;2023-12-20T02:32:46;23.75;;;5.63;;
62707;SDS011;48769;51.624;5.886;2023-12-20T02:35:13;21.45;;;4.82;;
62707;SDS011;48769;51.624;5.886;2023-12-20T02:37:38;21.15;;;4.70;;
62707;SDS011;48769;51.624;5.886;2023-12-20T02:40:03;20.08;;;4.43;;
62707;SDS011;48769;51.624;5.886;2023-12-20T02:42:29;24.65;;;4.50;;
62707;SDS011;48769;51.624;5.886;2023-12-20T02:44:55;21.05;;;5.50;;
62707;SDS011;48769;51.624;5.886;2023-12-20T02:47:20;15.00;;;4.40;;
62707;SDS011;48769;51.624;5.886;2023-12-20T02:49:45;20.08;;;4.57;;
62707;SDS011;48769;51.624;5.886;2023-12-20T02:52:10;22.25;;;5.07;;
62707;SDS011;48769;51.624;5.886;2023-12-20T02:54:36;20.13;;;4.93;;
62707;SDS011;48769;51.624;5.886;2023-12-20T02:57:01;25.27;;;5.13;;
62707;SDS011;48769;51.624;5.886;2023-12-20T02:59:27;23.98;;;4.65;;
62707;SDS011;48769;51.624;5.886;2023-12-20T03:01:52;35.65;;;5.22;;
62707;SDS011;48769;51.624;5.886;2023-12-20T03:04:17;31.05;;;6.35;;
62707;SDS011;48769;51.624;5.886;2023-12-20T03:06:43;26.58;;;4.53;;
62707;SDS011;48769;51.624;5.886;2023-12-20T03:09:08;24.75;;;5.57;;
62707;SDS011;48769;51.624;5.886;2023-12-20T03:11:33;30.02;;;4.80;;
62707;SDS011;48769;51.624;5.886;2023-12-20T03:13:59;26.40;;;5.00;;
62707;SDS011;48769;51.624;5.886;2023-12-20T03:16:24;28.42;;;5.30;;
62707;SDS011;48769;51.624;5.886;2023-12-20T03:18:49;24.30;;;5.65;;
62707;SDS011;48769;51.624;5.886;2023-12-20T03:21:15;31.05;;;6.30;;
62707;SDS011;48769;51.624;5.886;2023-12-20T03:23:40;24.30;;;6.35;;
62707;SDS011;48769;51.624;5.886;2023-12-20T03:26:09;37.60;;;7.55;;
62707;SDS011;48769;51.624;5.886;2023-12-20T03:28:35;28.95;;;6.68;;
62707;SDS011;48769;51.624;5.886;2023-12-20T03:31:01;27.05;;;6.03;;
62707;SDS011;48769;51.624;5.886;2023-12-20T03:33:27;30.00;;;7.13;;
62707;SDS011;48769;51.624;5.886;2023-12-20T03:35:53;22.48;;;6.32;;
62707;SDS011;48769;51.624;5.886;2023-12-20T03:38:18;21.40;;;6.15;;
62707;SDS011;48769;51.624;5.886;2023-12-20T03:40:43;25.55;;;6.05;;
62707;SDS011;48769;51.624;5.886;2023-12-20T03:43:08;29.38;;;6.65;;
62707;SDS011;48769;51.624;5.886;2023-12-20T03:45:34;35.53;;;7.68;;
62707;SDS011;48769;51.624;5.886;2023-12-20T03:47:59;36.15;;;6.72;;
62707;SDS011;48769;51.624;5.886;2023-12-20T03:50:29;30.10;;;7.68;;
62707;SDS011;48769;51.624;5.886;2023-12-20T03:52:54;27.60;;;6.88;;
62707;SDS011;48769;51.624;5.886;2023-12-20T03:55:19;22.50;;;5.38;;
62707;SDS011;48769;51.624;5.886;2023-12-20T03:57:45;26.90;;;6.10;;
62707;SDS011;48769;51.624;5.886;2023-12-20T04:00:10;34.78;;;5.65;;
62707;SDS011;48769;51.624;5.886;2023-12-20T04:02:36;29.65;;;5.70;;
62707;SDS011;48769;51.624;5.886;2023-12-20T04:05:02;32.63;;;6.53;;
62707;SDS011;48769;51.624;5.886;2023-12-20T04:07:28;33.90;;;6.80;;
62707;SDS011;48769;51.624;5.886;2023-12-20T04:09:53;35.53;;;7.18;;
62707;SDS011;48769;51.624;5.886;2023-12-20T04:12:18;35.25;;;6.50;;
62707;SDS011;48769;51.624;5.886;2023-12-20T04:14:43;33.65;;;6.25;;
62707;SDS011;48769;51.624;5.886;2023-12-20T04:17:09;32.22;;;6.45;;
62707;SDS011;48769;51.624;5.886;2023-12-20T04:19:34;32.78;;;6.45;;
62707;SDS011;48769;51.624;5.886;2023-12-20T04:21:59;31.90;;;5.38;;
62707;SDS011;48769;51.624;5.886;2023-12-20T04:24:25;24.30;;;5.53;;
62707;SDS011;48769;51.624;5.886;2023-12-20T04:26:50;28.60;;;6.78;;
62707;SDS011;48769;51.624;5.886;2023-12-20T04:29:16;29.08;;;5.25;;
62707;SDS011;48769;51.624;5.886;2023-12-20T04:31:41;24.88;;;5.63;;
62707;SDS011;48769;51.624;5.886;2023-12-20T04:34:07;30.40;;;6.43;;
62707;SDS011;48769;51.624;5.886;2023-12-20T04:36:32;35.92;;;5.65;;
62707;SDS011;48769;51.624;5.886;2023-12-20T04:38:58;22.13;;;6.32;;
62707;SDS011;48769;51.624;5.886;2023-12-20T04:41:24;38.80;;;5.78;;
62707;SDS011;48769;51.624;5.886;2023-12-20T04:43:50;38.08;;;6.82;;
62707;SDS011;48769;51.624;5.886;2023-12-20T04:46:18;27.92;;;6.25;;
62707;SDS011;48769;51.624;5.886;2023-12-20T04:48:43;27.92;;;5.63;;
62707;SDS011;48769;51.624;5.886;2023-12-20T04:51:11;33.58;;;5.95;;
62707;SDS011;48769;51.624;5.886;2023-12-20T04:53:36;30.05;;;5.60;;
62707;SDS011;48769;51.624;5.886;2023-12-20T04:56:02;39.63;;;6.50;;
62707;SDS011;48769;51.624;5.886;2023-12-20T04:58:27;31.30;;;7.65;;
62707;SDS011;48769;51.624;5.886;2023-12-20T05:00:53;28.75;;;5.80;;
62707;SDS011;48769;51.624;5.886;2023-12-20T05:03:18;26.42;;;5.63;;
62707;SDS011;48769;51.624;5.886;2023-12-20T05:05:44;32.92;;;6.57;;
62707;SDS011;48769;51.624;5.886;2023-12-20T05:08:09;34.17;;;7.85;;
62707;SDS011;48769;51.624;5.886;2023-12-20T05:10:35;27.83;;;5.78;;
62707;SDS011;48769;51.624;5.886;2023-12-20T05:13:01;25.13;;;6.20;;
62707;SDS011;48769;51.624;5.886;2023-12-20T05:15:26;34.28;;;6.88;;
62707;SDS011;48769;51.624;5.886;2023-12-20T05:17:52;38.03;;;7.70;;
62707;SDS011;48769;51.624;5.886;2023-12-20T05:20:17;29.33;;;6.82;;
62707;SDS011;48769;51.624;5.886;2023-12-20T05:22:42;29.30;;;7.25;;
62707;SDS011;48769;51.624;5.886;2023-12-20T05:25:09;29.40;;;7.00;;
62707;SDS011;48769;51.624;5.886;2023-12-20T05:27:35;36.55;;;7.90;;
62707;SDS011;48769;51.624;5.886;2023-12-20T05:30:00;29.02;;;6.85;;
62707;SDS011;48769;51.624;5.886;2023-12-20T05:32:25;29.23;;;7.32;;
62707;SDS011;48769;51.624;5.886;2023-12-20T05:34:51;28.67;;;7.90;;
62707;SDS011;48769;51.624;5.886;2023-12-20T05:37:16;30.42;;;7.90;;
62707;SDS011;48769;51.624;5.886;2023-12-20T05:39:41;29.80;;;7.53;;
62707;SDS011;48769;51.624;5.886;2023-12-20T05:42:06;31.13;;;7.15;;
62707;SDS011;48769;51.624;5.886;2023-12-20T05:44:32;33.47;;;7.38;;
62707;SDS011;48769;51.624;5.886;2023-12-20T05:46:57;40.05;;;8.40;;
62707;SDS011;48769;51.624;5.886;2023-12-20T05:49:22;32.55;;;8.45;;
62707;SDS011;48769;51.624;5.886;2023-12-20T05:51:48;33.13;;;7.38;;
62707;SDS011;48769;51.624;5.886;2023-12-20T05:54:13;36.33;;;8.32;;
62707;SDS011;48769;51.624;5.886;2023-12-20T05:56:38;30.20;;;8.82;;
62707;SDS011;48769;51.624;5.886;2023-12-20T05:59:04;32.55;;;5.88;;
62707;SDS011;48769;51.624;5.886;2023-12-20T06:01:29;32.60;;;6.18;;
62707;SDS011;48769;51.624;5.886;2023-12-20T06:03:54;30.92;;;6.38;;
62707;SDS011;48769;51.624;5.886;2023-12-20T06:06:20;30.40;;;7.03;;
62707;SDS011;48769;51.624;5.886;2023-12-20T06:08:45;44.80;;;7.80;;
62707;SDS011;48769;51.624;5.886;2023-12-20T06:11:10;30.05;;;7.18;;
62707;SDS011;48769;51.624;5.886;2023-12-20T06:13:36;27.08;;;6.28;;
62707;SDS011;48769;51.624;5.886;2023-12-20T06:16:01;30.40;;;5.85;;
62707;SDS011;48769;51.624;5.886;2023-12-20T06:18:27;32.30;;;5.88;;
62707;SDS011;48769;51.624;5.886;2023-12-20T06:20:52;26.15;;;6.40;;
62707;SDS011;48769;51.624;5.886;2023-12-20T06:23:18;30.17;;;5.75;;
62707;SDS011;48769;51.624;5.886;2023-12-20T06:25:43;30.00;;;6.35;;
62707;SDS011;48769;51.624;5.886;2023-12-20T06:28:09;31.17;;;5.85;;
62707;SDS011;48769;51.624;5.886;2023-12-20T06:30:35;33.90;;;6.65;;
62707;SDS011;48769;51.624;5.886;2023-12-20T06:33:01;32.40;;;6.60;;
62707;SDS011;48769;51.624;5.886;2023-12-20T06:35:26;35.20;;;5.70;;
62707;SDS011;48769;51.624;5.886;2023-12-20T06:37:51;27.40;;;6.18;;
62707;SDS011;48769;51.624;5.886;2023-12-20T06:40:17;34.28;;;5.90;;
62707;SDS011;48769;51.624;5.886;2023-12-20T06:42:43;27.77;;;5.90;;
62707;SDS011;48769;51.624;5.886;2023-12-20T06:45:09;29.23;;;6.40;;
62707;SDS011;48769;51.624;5.886;2023-12-20T06:47:35;30.27;;;7.30;;
62707;SDS011;48769;51.624;5.886;2023-12-20T06:50:00;36.22;;;6.35;;
62707;SDS011;48769;51.624;5.886;2023-12-20T06:52:26;51.85;;;8.55;;
62707;SDS011;48769;51.624;5.886;2023-12-20T06:54:51;22.50;;;5.55;;
62707;SDS011;48769;51.624;5.886;2023-12-20T06:57:17;43.35;;;6.82;;
62707;SDS011;48769;51.624;5.886;2023-12-20T06:59:42;29.27;;;6.05;;
62707;SDS011;48769;51.624;5.886;2023-12-20T07:02:08;27.15;;;5.78;;
62707;SDS011;48769;51.624;5.886;2023-12-20T07:04:33;32.60;;;7.72;;
62707;SDS011;48769;51.624;5.886;2023-12-20T07:06:59;33.05;;;7.18;;
62707;SDS011;48769;51.624;5.886;2023-12-20T07:09:28;24.58;;;6.35;;
62707;SDS011;48769;51.624;5.886;2023-12-20T07:11:53;34.72;;;6.88;;
62707;SDS011;48769;51.624;5.886;2023-12-20T07:14:19;33.40;;;6.55;;
62707;SDS011;48769;51.624;5.886;2023-12-20T07:16:44;32.03;;;6.93;;
62707;SDS011;48769;51.624;5.886;2023-12-20T07:19:09;29.70;;;6.97;;
62707;SDS011;48769;51.624;5.886;2023-12-20T07:21:35;28.13;;;7.18;;
62707;SDS011;48769;51.624;5.886;2023-12-20T07:24:00;31.42;;;6.65;;
62707;SDS011;48769;51.624;5.886;2023-12-20T07:26:25;37.55;;;7.57;;
62707;SDS011;48769;51.624;5.886;2023-12-20T07:28:51;34.10;;;7.95;;
62707;SDS011;48769;51.624;5.886;2023-12-20T07:31:16;29.38;;;7.90;;
62707;SDS011;48769;51.624;5.886;2023-12-20T07:33:42;33.38;;;8.43;;
62707;SDS011;48769;51.624;5.886;2023-12-20T07:36:07;28.15;;;7.90;;
62707;SDS011;48769;51.624;5.886;2023-12-20T07:38:33;31.27;;;8.25;;
62707;SDS011;48769;51.624;5.886;2023-12-20T07:40:58;33.08;;;7.72;;
62707;SDS011;48769;51.624;5.886;2023-12-20T07:43:24;32.45;;;7.25;;
62707;SDS011;48769;51.624;5.886;2023-12-20T07:45:49;31.10;;;6.35;;
62707;SDS011;48769;51.624;5.886;2023-12-20T07:48:14;24.95;;;7.45;;
62707;SDS011;48769;51.624;5.886;2023-12-20T07:50:39;30.38;;;8.48;;
62707;SDS011;48769;51.624;5.886;2023-12-20T07:53:05;27.98;;;7.22;;
62707;SDS011;48769;51.624;5.886;2023-12-20T07:55:30;33.47;;;6.43;;
62707;SDS011;48769;51.624;5.886;2023-12-20T07:57:56;30.88;;;7.57;;
62707;SDS011;48769;51.624;5.886;2023-12-20T08:00:23;31.50;;;6.95;;
62707;SDS011;48769;51.624;5.886;2023-12-20T08:02:48;26.05;;;5.93;;
62707;SDS011;48769;51.624;5.886;2023-12-20T08:05:13;30.25;;;6.13;;
62707;SDS011;48769;51.624;5.886;2023-12-20T08:07:39;31.70;;;6.28;;
62707;SDS011;48769;51.624;5.886;2023-12-20T08:10:04;29.50;;;6.55;;
62707;SDS011;48769;51.624;5.886;2023-12-20T08:12:30;29.17;;;6.18;;
62707;SDS011;48769;51.624;5.886;2023-12-20T08:14:55;24.63;;;5.18;;
62707;SDS011;48769;51.624;5.886;2023-12-20T08:17:22;24.88;;;5.55;;
62707;SDS011;48769;51.624;5.886;2023-12-20T08:19:48;28.02;;;5.47;;
62707;SDS011;48769;51.624;5.886;2023-12-20T08:22:13;27.00;;;5.10;;
62707;SDS011;48769;51.624;5.886;2023-12-20T08:24:39;33.47;;;5.82;;
62707;SDS011;48769;51.624;5.886;2023-12-20T08:27:04;28.42;;;4.88;;
62707;SDS011;48769;51.624;5.886;2023-12-20T08:29:30;28.83;;;5.93;;
62707;SDS011;48769;51.624;5.886;2023-12-20T08:31:55;31.02;;;5.30;;
62707;SDS011;48769;51.624;5.886;2023-12-20T08:34:21;33.63;;;5.13;;
62707;SDS011;48769;51.624;5.886;2023-12-20T08:36:47;32.08;;;5.13;;
62707;SDS011;48769;51.624;5.886;2023-12-20T08:39:12;23.38;;;5.30;;
62707;SDS011;48769;51.624;5.886;2023-12-20T08:41:37;21.63;;;5.40;;
62707;SDS011;48769;51.624;5.886;2023-12-20T08:44:03;34.72;;;5.43;;
62707;SDS011;48769;51.624;5.886;2023-12-20T08:46:28;30.48;;;5.85;;
62707;SDS011;48769;51.624;5.886;2023-12-20T08:48:54;26.38;;;6.78;;
62707;SDS011;48769;51.624;5.886;2023-12-20T08:51:19;22.02;;;5.32;;
62707;SDS011;48769;51.624;5.886;2023-12-20T08:53:46;34.65;;;5.60;;
62707;SDS011;48769;51.624;5.886;2023-12-20T08:56:12;26.98;;;4.88;;
62707;SDS011;48769;51.624;5.886;2023-12-20T08:58:38;29.52;;;6.47;;
62707;SDS011;48769;51.624;5.886;2023-12-20T09:01:03;26.95;;;4.95;;
62707;SDS011;48769;51.624;5.886;2023-12-20T09:03:28;32.55;;;5.97;;
62707;SDS011;48769;51.624;5.886;2023-12-20T09:05:53;32.55;;;5.75;;
62707;SDS011;48769;51.624;5.886;2023-12-20T09:08:19;35.17;;;5.57;;
62707;SDS011;48769;51.624;5.886;2023-12-20T09:10:44;22.85;;;5.05;;
62707;SDS011;48769;51.624;5.886;2023-12-20T09:13:10;26.98;;;5.47;;
62707;SDS011;48769;51.624;5.886;2023-12-20T09:15:35;28.63;;;5.25;;
62707;SDS011;48769;51.624;5.886;2023-12-20T09:18:00;20.65;;;4.82;;
62707;SDS011;48769;51.624;5.886;2023-12-20T09:20:26;27.77;;;5.05;;
62707;SDS011;48769;51.624;5.886;2023-12-20T09:22:52;28.17;;;6.05;;
62707;SDS011;48769;51.624;5.886;2023-12-20T09:25:17;29.02;;;6.05;;
62707;SDS011;48769;51.624;5.886;2023-12-20T09:27:43;26.85;;;4.22;;
62707;SDS011;48769;51.624;5.886;2023-12-20T09:30:08;25.63;;;5.18;;
62707;SDS011;48769;51.624;5.886;2023-12-20T09:32:34;19.98;;;5.43;;
62707;SDS011;48769;51.624;5.886;2023-12-20T09:34:59;28.10;;;5.70;;
62707;SDS011;48769;51.624;5.886;2023-12-20T09:37:28;25.13;;;5.70;;
62707;SDS011;48769;51.624;5.886;2023-12-20T09:39:53;22.55;;;5.88;;
62707;SDS011;48769;51.624;5.886;2023-12-20T09:45:15;30.90;;;6.05;;
62707;SDS011;48769;51.624;5.886;2023-12-20T09:47:46;31.05;;;6.43;;
62707;SDS011;48769;51.624;5.886;2023-12-20T09:50:11;20.73;;;5.25;;
62707;SDS011;48769;51.624;5.886;2023-12-20T09:52:38;30.20;;;7.55;;
62707;SDS011;48769;51.624;5.886;2023-12-20T09:55:04;21.15;;;5.78;;
62707;SDS011;48769;51.624;5.886;2023-12-20T09:57:31;28.00;;;5.82;;
62707;SDS011;48769;51.624;5.886;2023-12-20T09:59:57;33.65;;;6.43;;
62707;SDS011;48769;51.624;5.886;2023-12-20T10:02:23;30.25;;;6.13;;
62707;SDS011;48769;51.624;5.886;2023-12-20T10:04:52;35.75;;;6.13;;
62707;SDS011;48769;51.624;5.886;2023-12-20T10:07:17;22.38;;;6.00;;
62707;SDS011;48769;51.624;5.886;2023-12-20T10:09:43;22.67;;;5.97;;
62707;SDS011;48769;51.624;5.886;2023-12-20T10:12:09;23.73;;;6.03;;
62707;SDS011;48769;51.624;5.886;2023-12-20T10:14:34;21.13;;;5.85;;
62707;SDS011;48769;51.624;5.886;2023-12-20T10:17:03;24.45;;;6.78;;
62707;SDS011;48769;51.624;5.886;2023-12-20T10:19:29;28.80;;;7.13;;
62707;SDS011;48769;51.624;5.886;2023-12-20T10:21:54;30.02;;;7.28;;
62707;SDS011;48769;51.624;5.886;2023-12-20T10:24:19;24.63;;;6.75;;
62707;SDS011;48769;51.624;5.886;2023-12-20T10:26:45;29.65;;;5.95;;
62707;SDS011;48769;51.624;5.886;2023-12-20T10:29:11;26.70;;;6.07;;
62707;SDS011;48769;51.624;5.886;2023-12-20T10:31:36;26.25;;;6.05;;
62707;SDS011;48769;51.624;5.886;2023-12-20T10:34:03;24.27;;;6.40;;
62707;SDS011;48769;51.624;5.886;2023-12-20T10:36:30;26.27;;;6.00;;
62707;SDS011;48769;51.624;5.886;2023-12-20T10:38:57;23.52;;;6.10;;
62707;SDS011;48769;51.624;5.886;2023-12-20T10:41:27;29.83;;;5.75;;
62707;SDS011;48769;51.624;5.886;2023-12-20T10:43:58;24.52;;;5.38;;
62707;SDS011;48769;51.624;5.886;2023-12-20T10:46:24;29.80;;;6.13;;
62707;SDS011;48769;51.624;5.886;2023-12-20T10:48:53;27.05;;;4.90;;
62707;SDS011;48769;51.624;5.886;2023-12-20T10:51:19;28.55;;;5.63;;
62707;SDS011;48769;51.624;5.886;2023-12-20T10:53:46;23.83;;;5.45;;
62707;SDS011;48769;51.624;5.886;2023-12-20T10:56:12;34.85;;;5.03;;
62707;SDS011;48769;51.624;5.886;2023-12-20T10:58:42;30.10;;;4.93;;
62707;SDS011;48769;51.624;5.886;2023-12-20T11:01:10;19.88;;;6.13;;
62707;SDS011;48769;51.624;5.886;2023-12-20T11:03:38;33.85;;;8.20;;
62707;SDS011;48769;51.624;5.886;2023-12-20T11:12:09;25.52;;;5.25;;
62707;SDS011;48769;51.624;5.886;2023-12-20T11:17:12;20.42;;;4.95;;
62707;SDS011;48769;51.624;5.886;2023-12-20T11:20:12;27.83;;;6.45;;
62707;SDS011;48769;51.624;5.886;2023-12-20T11:22:33;30.08;;;4.85;;
62707;SDS011;48769;51.624;5.886;2023-12-20T11:25:06;31.48;;;5.32;;
62707;SDS011;48769;51.624;5.886;2023-12-20T11:27:33;23.67;;;5.40;;
62707;SDS011;48769;51.624;5.886;2023-12-20T11:30:00;28.85;;;5.18;;
62707;SDS011;48769;51.624;5.886;2023-12-20T11:32:35;31.13;;;5.80;;
62707;SDS011;48769;51.624;5.886;2023-12-20T11:37:37;24.15;;;5.05;;
62707;SDS011;48769;51.624;5.886;2023-12-20T11:40:06;25.40;;;4.85;;
62707;SDS011;48769;51.624;5.886;2023-12-20T11:42:40;26.08;;;5.10;;
62707;SDS011;48769;51.624;5.886;2023-12-20T11:45:14;34.75;;;6.10;;
62707;SDS011;48769;51.624;5.886;2023-12-20T11:47:44;27.88;;;5.03;;
62707;SDS011;48769;51.624;5.886;2023-12-20T11:50:11;29.05;;;5.43;;
62707;SDS011;48769;51.624;5.886;2023-12-20T11:52:37;19.65;;;5.72;;
62707;SDS011;48769;51.624;5.886;2023-12-20T11:55:02;27.67;;;5.50;;
62707;SDS011;48769;51.624;5.886;2023-12-20T11:57:28;24.80;;;5.25;;
62707;SDS011;48769;51.624;5.886;2023-12-20T11:59:54;27.75;;;4.88;;
62707;SDS011;48769;51.624;5.886;2023-12-20T12:02:21;30.40;;;4.95;;
62707;SDS011;48769;51.624;5.886;2023-12-20T12:04:48;24.77;;;6.70;;
62707;SDS011;48769;51.624;5.886;2023-12-20T12:07:13;22.27;;;5.30;;
62707;SDS011;48769;51.624;5.886;2023-12-20T12:09:39;24.30;;;5.15;;
62707;SDS011;48769;51.624;5.886;2023-12-20T12:12:04;30.48;;;5.90;;
62707;SDS011;48769;51.624;5.886;2023-12-20T12:14:30;33.30;;;6.28;;
62707;SDS011;48769;51.624;5.886;2023-12-20T12:16:56;21.90;;;5.05;;
62707;SDS011;48769;51.624;5.886;2023-12-20T12:19:24;23.17;;;5.57;;
62707;SDS011;48769;51.624;5.886;2023-12-20T12:21:51;23.20;;;5.40;;
62707;SDS011;48769;51.624;5.886;2023-12-20T12:24:33;23.60;;;5.75;;
62707;SDS011;48769;51.624;5.886;2023-12-20T12:26:59;32.67;;;6.43;;
62707;SDS011;48769;51.624;5.886;2023-12-20T12:29:24;22.08;;;6.65;;
62707;SDS011;48769;51.624;5.886;2023-12-20T12:31:50;25.83;;;5.80;;
62707;SDS011;48769;51.624;5.886;2023-12-20T12:34:17;27.60;;;6.45;;
62707;SDS011;48769;51.624;5.886;2023-12-20T12:36:42;35.67;;;8.25;;
62707;SDS011;48769;51.624;5.886;2023-12-20T12:39:08;29.90;;;5.75;;
62707;SDS011;48769;51.624;5.886;2023-12-20T12:41:34;28.52;;;6.50;;
62707;SDS011;48769;51.624;5.886;2023-12-20T12:44:00;31.20;;;7.00;;
62707;SDS011;48769;51.624;5.886;2023-12-20T12:46:25;30.40;;;8.13;;
62707;SDS011;48769;51.624;5.886;2023-12-20T12:48:51;28.90;;;7.82;;
62707;SDS011;48769;51.624;5.886;2023-12-20T12:51:19;29.73;;;7.57;;
62707;SDS011;48769;51.624;5.886;2023-12-20T12:53:44;27.50;;;6.93;;
62707;SDS011;48769;51.624;5.886;2023-12-20T12:56:10;31.63;;;8.38;;
62707;SDS011;48769;51.624;5.886;2023-12-20T12:58:37;29.30;;;8.85;;
62707;SDS011;48769;51.624;5.886;2023-12-20T13:01:03;43.28;;;9.02;;
62707;SDS011;48769;51.624;5.886;2023-12-20T13:03:28;30.45;;;7.80;;
62707;SDS011;48769;51.624;5.886;2023-12-20T13:05:53;35.58;;;8.98;;
62707;SDS011;48769;51.624;5.886;2023-12-20T13:08:20;35.33;;;9.43;;
62707;SDS011;48769;51.624;5.886;2023-12-20T13:10:45;28.45;;;8.68;;
62707;SDS011;48769;51.624;5.886;2023-12-20T13:13:11;34.97;;;9.35;;
62707;SDS011;48769;51.624;5.886;2023-12-20T13:15:36;23.45;;;9.30;;
62707;SDS011;48769;51.624;5.886;2023-12-20T13:18:02;34.05;;;9.77;;
62707;SDS011;48769;51.624;5.886;2023-12-20T13:20:27;33.42;;;10.85;;
62707;SDS011;48769;51.624;5.886;2023-12-20T13:22:52;34.35;;;10.10;;
62707;SDS011;48769;51.624;5.886;2023-12-20T13:25:18;22.30;;;9.68;;
62707;SDS011;48769;51.624;5.886;2023-12-20T13:27:43;34.88;;;10.65;;
62707;SDS011;48769;51.624;5.886;2023-12-20T13:30:09;29.35;;;11.60;;
62707;SDS011;48769;51.624;5.886;2023-12-20T13:32:34;31.05;;;11.13;;
62707;SDS011;48769;51.624;5.886;2023-12-20T13:35:00;42.58;;;11.77;;
62707;SDS011;48769;51.624;5.886;2023-12-20T13:37:25;36.10;;;12.20;;
62707;SDS011;48769;51.624;5.886;2023-12-20T13:39:51;28.63;;;10.50;;
62707;SDS011;48769;51.624;5.886;2023-12-20T13:42:16;26.60;;;11.60;;
62707;SDS011;48769;51.624;5.886;2023-12-20T13:44:42;42.78;;;11.88;;
62707;SDS011;48769;51.624;5.886;2023-12-20T13:47:07;29.67;;;10.63;;
62707;SDS011;48769;51.624;5.886;2023-12-20T13:49:32;33.53;;;11.20;;
62707;SDS011;48769;51.624;5.886;2023-12-20T13:51:58;33.25;;;11.70;;
62707;SDS011;48769;51.624;5.886;2023-12-20T13:54:24;30.70;;;10.50;;
62707;SDS011;48769;51.624;5.886;2023-12-20T13:56:49;31.30;;;10.25;;
62707;SDS011;48769;51.624;5.886;2023-12-20T13:59:15;26.92;;;11.52;;
62707;SDS011;48769;51.624;5.886;2023-12-20T14:01:41;35.92;;;11.38;;
62707;SDS011;48769;51.624;5.886;2023-12-20T14:04:06;31.27;;;10.98;;
62707;SDS011;48769;51.624;5.886;2023-12-20T14:06:32;33.17;;;10.77;;
62707;SDS011;48769;51.624;5.886;2023-12-20T14:08:58;23.65;;;10.07;;
62707;SDS011;48769;51.624;5.886;2023-12-20T14:11:27;31.77;;;9.93;;
62707;SDS011;48769;51.624;5.886;2023-12-20T14:13:53;32.72;;;10.02;;
62707;SDS011;48769;51.624;5.886;2023-12-20T14:16:22;32.83;;;10.55;;
62707;SDS011;48769;51.624;5.886;2023-12-20T14:18:48;25.45;;;9.32;;
62707;SDS011;48769;51.624;5.886;2023-12-20T14:21:14;34.53;;;11.85;;
62707;SDS011;48769;51.624;5.886;2023-12-20T14:23:39;33.45;;;10.60;;
62707;SDS011;48769;51.624;5.886;2023-12-20T14:26:04;38.03;;;11.23;;
62707;SDS011;48769;51.624;5.886;2023-12-20T14:28:30;28.92;;;11.50;;
62707;SDS011;48769;51.624;5.886;2023-12-20T14:30:55;29.75;;;9.73;;
62707;SDS011;48769;51.624;5.886;2023-12-20T14:33:21;31.92;;;9.43;;
62707;SDS011;48769;51.624;5.886;2023-12-20T14:35:47;28.00;;;10.32;;
62707;SDS011;48769;51.624;5.886;2023-12-20T14:38:12;29.92;;;9.43;;
62707;SDS011;48769;51.624;5.886;2023-12-20T14:40:40;33.50;;;10.73;;